Time;durP1;ratioP1;P1;durP2;ratioP2;P2;SDS_P1;SDS_P2;PMS_P1;PMS_P2;Temp;Humidity;BMP_temperature;BMP_pressure;BME280_temperature;BME280_humidity;BME280_pressure;Samples;Min_cycle;Max_cycle;Signal;HPM_P1;HPM_P2
2022/12/08 00:01:21;;;;;;;2.50;1.00;;;4.60;99.90;;;;;;5027125;28;35982;-75
2022/12/08 00:03:48;;;;;;;3.43;1.13;;;4.60;99.90;;;;;;5020936;28;38643;-74
2022/12/08 00:09:20;;;;;;;4.53;1.40;;;4.60;99.90;;;;;;5025550;28;39512;-75
2022/12/08 00:11:48;;;;;;;3.13;1.02;;;4.60;99.90;;;;;;5023860;28;37361;-75
2022/12/08 00:14:15;;;;;;;3.50;0.97;;;4.60;99.90;;;;;;5039296;28;37609;-74
2022/12/08 00:16:41;;;;;;;2.97;1.10;;;4.60;99.90;;;;;;5028038;28;38186;-75
2022/12/08 00:19:07;;;;;;;3.73;0.83;;;4.60;99.90;;;;;;5024882;28;37433;-74
2022/12/08 00:21:33;;;;;;;4.67;1.10;;;4.70;99.90;;;;;;5029888;28;36719;-74
2022/12/08 00:23:59;;;;;;;3.03;0.90;;;4.70;99.90;;;;;;5035086;28;38722;-74
2022/12/08 00:26:25;;;;;;;2.60;0.70;;;4.70;99.90;;;;;;5029489;28;37133;-74
2022/12/08 00:28:51;;;;;;;2.87;0.70;;;4.80;99.90;;;;;;5026242;28;37691;-74
2022/12/08 00:31:17;;;;;;;4.23;0.80;;;4.80;99.90;;;;;;5026548;28;37163;-74
2022/12/08 00:33:44;;;;;;;5.23;0.70;;;4.70;99.90;;;;;;5027089;28;37508;-74
2022/12/08 00:36:15;;;;;;;2.83;0.80;;;4.70;99.90;;;;;;5024840;28;38078;-74
2022/12/08 00:38:43;;;;;;;7.37;0.77;;;4.70;99.90;;;;;;5045075;28;36887;-74
2022/12/08 00:41:13;;;;;;;5.43;0.80;;;4.70;99.90;;;;;;5027585;28;35714;-74
2022/12/08 00:43:41;;;;;;;4.30;1.10;;;4.70;99.90;;;;;;5027517;28;37911;-74
2022/12/08 00:46:07;;;;;;;3.90;0.63;;;4.70;99.90;;;;;;5025046;28;37811;-74
2022/12/08 00:48:34;;;;;;;3.70;0.70;;;4.70;99.90;;;;;;5044825;28;36877;-75
2022/12/08 00:51:00;;;;;;;5.23;0.87;;;4.80;99.90;;;;;;5029037;28;38049;-74
2022/12/08 00:53:27;;;;;;;2.60;0.60;;;4.80;99.90;;;;;;5028130;28;39060;-74
2022/12/08 00:55:53;;;;;;;2.50;0.43;;;4.80;99.90;;;;;;5029386;28;39576;-74
2022/12/08 00:58:19;;;;;;;2.07;0.43;;;4.80;99.90;;;;;;5030873;28;38133;-74
2022/12/08 01:00:45;;;;;;;3.80;0.40;;;4.80;99.90;;;;;;5025688;28;35726;-74
2022/12/08 01:03:11;;;;;;;3.20;0.40;;;4.80;99.90;;;;;;5023479;28;39569;-74
2022/12/08 01:05:38;;;;;;;2.63;0.20;;;4.80;99.90;;;;;;5024377;28;39362;-74
2022/12/08 01:08:05;;;;;;;2.43;0.50;;;4.70;99.90;;;;;;5027999;28;38644;-75
2022/12/08 01:10:34;;;;;;;3.97;0.40;;;4.70;99.90;;;;;;5021142;28;35932;-75
2022/12/08 01:13:01;;;;;;;2.03;0.30;;;4.60;99.90;;;;;;5018048;28;38791;-74
2022/12/08 01:15:27;;;;;;;2.40;0.30;;;4.60;99.90;;;;;;5041085;28;37340;-75
2022/12/08 01:17:53;;;;;;;2.73;0.33;;;4.50;99.90;;;;;;5028486;28;40724;-74
2022/12/08 01:20:19;;;;;;;1.87;0.40;;;4.50;99.90;;;;;;5026030;28;37177;-74
2022/12/08 01:22:45;;;;;;;4.00;0.40;;;4.50;99.90;;;;;;5025099;28;37424;-74
2022/12/08 01:25:11;;;;;;;0.60;0.30;;;4.50;99.90;;;;;;5024484;28;38287;-74
2022/12/08 01:27:37;;;;;;;2.83;0.40;;;4.60;99.90;;;;;;5022365;28;37871;-74
2022/12/08 01:30:04;;;;;;;3.17;0.30;;;4.50;99.90;;;;;;5028182;28;37138;-74
2022/12/08 01:32:30;;;;;;;2.80;0.43;;;4.60;99.90;;;;;;5023338;28;40069;-75
2022/12/08 01:34:56;;;;;;;5.13;0.60;;;4.60;99.90;;;;;;5025163;28;36138;-74
2022/12/08 01:37:23;;;;;;;3.83;0.50;;;4.60;99.90;;;;;;5026411;28;39168;-74
2022/12/08 01:39:49;;;;;;;2.57;0.50;;;4.70;99.90;;;;;;5024645;28;37380;-74
2022/12/08 01:42:20;;;;;;;1.13;0.40;;;4.70;99.90;;;;;;5023343;28;38983;-74
2022/12/08 01:44:56;;;;;;;0.97;0.40;;;4.70;99.90;;;;;;5025452;28;37871;-75
2022/12/08 01:47:27;;;;;;;2.77;0.40;;;4.70;99.90;;;;;;5028301;28;38741;-75
2022/12/08 01:49:53;;;;;;;2.47;1.03;;;4.70;99.90;;;;;;5041325;28;35857;-74
2022/12/08 01:52:25;;;;;;;3.90;0.50;;;4.70;99.90;;;;;;5025472;28;39668;-74
2022/12/08 01:54:56;;;;;;;2.38;0.60;;;4.70;99.90;;;;;;5025931;28;38264;-75
2022/12/08 01:57:33;;;;;;;2.17;0.50;;;4.70;99.90;;;;;;5027076;28;38436;-74
2022/12/08 02:00:06;;;;;;;3.63;0.50;;;4.70;99.90;;;;;;5024388;28;36255;-74
2022/12/08 02:02:51;;;;;;;4.20;0.47;;;4.80;99.90;;;;;;5465619;22;37852;-79
2022/12/08 02:05:23;;;;;;;5.97;0.30;;;4.80;99.90;;;;;;4991482;28;39005;-77
2022/12/08 02:07:50;;;;;;;2.75;0.60;;;4.80;99.90;;;;;;4999171;28;37851;-76
2022/12/08 02:10:20;;;;;;;4.83;0.57;;;4.80;99.90;;;;;;4998253;28;36839;-77
2022/12/08 02:12:49;;;;;;;2.00;0.40;;;4.80;99.90;;;;;;5000696;28;37714;-77
2022/12/08 02:15:16;;;;;;;2.37;0.43;;;4.80;99.90;;;;;;5004027;28;38361;-77
2022/12/08 02:18:11;;;;;;;5.57;0.70;;;4.70;99.90;;;;;;5015847;28;40351;-77
2022/12/08 02:20:37;;;;;;;5.00;0.40;;;4.70;99.90;;;;;;5008564;28;48377;-77
2022/12/08 02:23:25;;;;;;;0.97;0.40;;;4.70;99.90;;;;;;5008844;28;38854;-77
2022/12/08 02:26:21;;;;;;;2.27;0.50;;;4.80;99.90;;;;;;5006895;28;39005;-77
2022/12/08 02:29:04;;;;;;;6.13;0.40;;;4.80;99.90;;;;;;4994178;28;48792;-77
2022/12/08 02:31:42;;;;;;;1.93;0.63;;;4.80;99.90;;;;;;5007052;28;35933;-77
2022/12/08 02:34:16;;;;;;;3.00;0.40;;;4.70;99.90;;;;;;5007124;28;38927;-77
2022/12/08 02:36:59;;;;;;;2.57;0.50;;;4.70;99.90;;;;;;5008619;28;38117;-77
2022/12/08 02:39:50;;;;;;;1.48;0.22;;;4.70;99.90;;;;;;5003446;28;37338;-77
2022/12/08 02:42:22;;;;;;;4.20;0.50;;;4.70;99.90;;;;;;5001760;28;37098;-77
2022/12/08 02:44:55;;;;;;;3.50;0.43;;;4.70;99.90;;;;;;5007067;28;38587;-77
2022/12/08 02:47:23;;;;;;;6.77;0.60;;;4.80;99.90;;;;;;5010550;28;38013;-78
2022/12/08 02:49:49;;;;;;;1.87;0.30;;;4.80;99.90;;;;;;5012768;28;36651;-77
2022/12/08 02:52:18;;;;;;;3.30;0.60;;;4.80;99.90;;;;;;5009008;28;37112;-77
2022/12/08 02:54:50;;;;;;;4.83;0.87;;;4.90;99.90;;;;;;5025970;28;37716;-77
2022/12/08 02:57:41;;;;;;;4.93;0.50;;;4.90;99.90;;;;;;5014746;28;38425;-77
2022/12/08 03:00:07;;;;;;;2.40;0.53;;;4.90;99.90;;;;;;5004767;28;38431;-76
2022/12/08 03:02:44;;;;;;;11.60;1.00;;;4.90;99.90;;;;;;5024080;28;36113;-77
2022/12/08 03:05:13;;;;;;;4.37;1.03;;;4.90;99.90;;;;;;5008795;28;39631;-77
2022/12/08 03:07:42;;;;;;;7.00;0.73;;;4.90;99.90;;;;;;5011962;28;38640;-77
2022/12/08 03:10:35;;;;;;;5.57;0.70;;;4.90;99.90;;;;;;5000582;28;38304;-77
2022/12/08 03:13:10;;;;;;;4.60;0.77;;;4.90;99.90;;;;;;5008558;28;35876;-77
2022/12/08 03:15:38;;;;;;;3.93;0.77;;;4.90;99.90;;;;;;5019622;28;47035;-77
2022/12/08 03:18:08;;;;;;;8.73;0.70;;;4.90;99.90;;;;;;5010109;28;38215;-77
2022/12/08 03:20:37;;;;;;;6.07;0.73;;;5.00;99.90;;;;;;5027301;28;38082;-77
2022/12/08 03:23:06;;;;;;;1.37;0.60;;;5.00;99.90;;;;;;5004879;28;36602;-77
2022/12/08 03:25:39;;;;;;;5.10;0.60;;;4.90;99.90;;;;;;5007359;28;38492;-77
2022/12/08 03:28:06;;;;;;;4.47;0.57;;;4.90;99.90;;;;;;5005459;28;37310;-77
2022/12/08 03:30:37;;;;;;;6.20;0.80;;;4.90;99.90;;;;;;5008465;28;37419;-77
2022/12/08 03:33:14;;;;;;;3.70;0.70;;;4.90;99.90;;;;;;5012949;28;37162;-77
2022/12/08 03:35:41;;;;;;;3.77;0.73;;;4.90;99.90;;;;;;5007368;28;38731;-76
2022/12/08 03:38:11;;;;;;;6.20;0.90;;;4.90;99.90;;;;;;5004829;28;37266;-76
2022/12/08 03:40:38;;;;;;;6.80;1.20;;;4.90;99.90;;;;;;5015223;28;37056;-77
2022/12/08 03:43:04;;;;;;;8.13;1.00;;;4.90;99.90;;;;;;5006335;28;36661;-77
2022/12/08 03:45:30;;;;;;;5.90;1.30;;;4.90;99.90;;;;;;5004311;28;37836;-77
2022/12/08 03:47:57;;;;;;;6.20;1.17;;;4.90;99.90;;;;;;5010718;28;38339;-77
2022/12/08 03:50:23;;;;;;;3.73;0.97;;;4.90;99.90;;;;;;5010447;28;38155;-77
2022/12/08 03:52:49;;;;;;;6.30;1.10;;;4.90;99.90;;;;;;5006795;28;37227;-77
2022/12/08 03:55:16;;;;;;;5.53;0.90;;;4.90;99.90;;;;;;5006823;28;38638;-77
2022/12/08 03:57:42;;;;;;;4.00;0.90;;;4.90;99.90;;;;;;5000253;28;37211;-77
2022/12/08 04:00:13;;;;;;;4.17;0.93;;;4.90;99.90;;;;;;5006221;28;38380;-77
2022/12/08 04:02:39;;;;;;;7.33;1.40;;;5.00;99.90;;;;;;5021761;28;38003;-76
2022/12/08 04:05:06;;;;;;;3.73;0.90;;;5.10;99.90;;;;;;5007264;28;38549;-77
2022/12/08 04:07:32;;;;;;;4.77;0.63;;;5.10;99.90;;;;;;4998565;28;37773;-76
2022/12/08 04:09:58;;;;;;;3.70;0.80;;;5.10;99.90;;;;;;5006871;28;38097;-77
2022/12/08 04:12:25;;;;;;;4.80;0.80;;;5.10;99.90;;;;;;5000224;28;36560;-77
2022/12/08 04:14:51;;;;;;;5.20;1.00;;;5.20;99.90;;;;;;5004558;28;39663;-77
2022/12/08 04:17:17;;;;;;;2.03;0.60;;;5.20;99.90;;;;;;5001290;28;38852;-77
2022/12/08 04:19:43;;;;;;;3.70;0.70;;;5.20;99.90;;;;;;5003201;28;38889;-77
2022/12/08 04:22:09;;;;;;;3.17;0.60;;;5.20;99.90;;;;;;5007575;28;39059;-77
2022/12/08 04:24:35;;;;;;;3.77;0.70;;;5.20;99.90;;;;;;5004146;28;40550;-77
2022/12/08 04:27:01;;;;;;;2.10;0.80;;;5.30;99.90;;;;;;5006330;28;39105;-77
2022/12/08 04:29:30;;;;;;;4.10;0.80;;;5.30;99.90;;;;;;5007101;28;38063;-76
2022/12/08 04:31:56;;;;;;;3.80;0.90;;;5.20;99.90;;;;;;5008201;28;36400;-78
2022/12/08 04:34:23;;;;;;;2.73;0.80;;;5.20;99.90;;;;;;5020986;28;37900;-77
2022/12/08 04:36:49;;;;;;;3.77;0.63;;;5.20;99.90;;;;;;5024418;28;37917;-76
2022/12/08 04:39:16;;;;;;;11.63;1.00;;;5.20;99.90;;;;;;5020668;28;37924;-77
2022/12/08 04:41:42;;;;;;;4.73;0.70;;;5.20;99.90;;;;;;5006965;28;39708;-77
2022/12/08 04:44:08;;;;;;;2.67;0.70;;;5.10;99.90;;;;;;5005260;28;38648;-77
2022/12/08 04:46:34;;;;;;;2.43;0.63;;;5.10;99.90;;;;;;5008632;28;38557;-77
2022/12/08 04:49:00;;;;;;;4.33;0.87;;;5.00;99.90;;;;;;5005454;28;39136;-77
2022/12/08 04:51:26;;;;;;;3.90;0.80;;;4.90;99.90;;;;;;5007748;28;34297;-76
2022/12/08 04:53:53;;;;;;;5.60;1.00;;;4.90;99.90;;;;;;5021631;28;35733;-77
2022/12/08 04:56:19;;;;;;;3.67;1.07;;;4.90;99.90;;;;;;5007331;28;38522;-77
2022/12/08 04:58:45;;;;;;;5.13;1.10;;;4.90;99.90;;;;;;5005818;28;37834;-77
2022/12/08 05:01:12;;;;;;;2.70;0.60;;;4.90;99.90;;;;;;5005678;28;37069;-77
2022/12/08 05:03:38;;;;;;;6.20;0.73;;;4.80;99.90;;;;;;5009512;28;39116;-77
2022/12/08 05:06:04;;;;;;;5.80;0.70;;;4.90;99.90;;;;;;5010352;28;39394;-76
2022/12/08 05:08:33;;;;;;;4.47;0.67;;;4.90;99.90;;;;;;5002885;28;36878;-77
2022/12/08 05:11:07;;;;;;;3.03;0.60;;;4.90;99.90;;;;;;5017220;28;36327;-76
2022/12/08 05:13:33;;;;;;;6.90;0.60;;;4.90;99.90;;;;;;5002817;28;46930;-77
2022/12/08 05:16:04;;;;;;;8.60;0.77;;;4.90;99.90;;;;;;5006227;28;38486;-77
2022/12/08 05:18:30;;;;;;;9.53;0.93;;;5.00;99.90;;;;;;5002456;28;47917;-77
2022/12/08 05:20:57;;;;;;;6.23;0.80;;;5.00;99.90;;;;;;5007676;28;36012;-77
2022/12/08 05:23:30;;;;;;;8.57;0.73;;;5.10;99.90;;;;;;5006052;28;39007;-77
2022/12/08 05:25:56;;;;;;;;;;;5.10;99.90;;;;;;5009455;28;38467;-77
2022/12/08 05:28:22;;;;;;;8.40;0.53;;;5.10;99.90;;;;;;5008892;28;37508;-77
2022/12/08 05:30:48;;;;;;;4.40;0.50;;;5.10;99.90;;;;;;5006348;28;36545;-78
2022/12/08 05:33:15;;;;;;;3.87;0.57;;;5.10;99.90;;;;;;5004643;28;38588;-77
2022/12/08 05:35:41;;;;;;;4.47;0.70;;;5.10;99.90;;;;;;5008203;28;37432;-77
2022/12/08 05:38:09;;;;;;;2.73;0.50;;;5.10;99.90;;;;;;4999942;28;38053;-78
2022/12/08 05:40:39;;;;;;;2.90;0.60;;;5.10;99.90;;;;;;5006465;28;38223;-78
2022/12/08 05:43:05;;;;;;;3.30;0.60;;;5.10;99.90;;;;;;5006007;28;41615;-77
2022/12/08 05:45:32;;;;;;;5.23;0.77;;;5.10;99.90;;;;;;5024715;28;37350;-78
2022/12/08 05:47:58;;;;;;;6.37;1.40;;;5.10;99.90;;;;;;5020216;28;39449;-81
2022/12/08 05:50:24;;;;;;;6.47;0.83;;;5.20;99.90;;;;;;5015836;28;36300;-81
2022/12/08 05:52:50;;;;;;;2.80;0.70;;;5.10;99.90;;;;;;5021021;28;39016;-81
2022/12/08 05:55:17;;;;;;;4.40;0.83;;;5.10;99.90;;;;;;5005783;28;39850;-81
2022/12/08 05:57:43;;;;;;;5.87;0.87;;;5.10;99.90;;;;;;5007469;28;36645;-81
2022/12/08 06:00:10;;;;;;;3.57;0.90;;;5.10;99.90;;;;;;5006908;28;37219;-80
2022/12/08 06:02:36;;;;;;;3.97;0.80;;;5.20;99.90;;;;;;5016131;28;39160;-81
2022/12/08 06:05:02;;;;;;;3.90;0.80;;;5.20;99.90;;;;;;5006058;28;37085;-78
2022/12/08 06:07:28;;;;;;;3.40;0.77;;;5.20;99.90;;;;;;5002402;28;36969;-79
2022/12/08 06:09:54;;;;;;;3.27;0.60;;;5.20;99.90;;;;;;5006462;28;36995;-79
2022/12/08 06:12:20;;;;;;;3.17;0.93;;;5.10;99.90;;;;;;5007026;28;40027;-78
2022/12/08 06:14:46;;;;;;;3.67;1.03;;;5.10;99.90;;;;;;5000711;28;36507;-78
2022/12/08 06:17:12;;;;;;;1.20;0.93;;;5.10;99.90;;;;;;5003334;28;38410;-79
2022/12/08 06:19:38;;;;;;;4.87;2.03;;;5.00;99.90;;;;;;5002582;28;34727;-78
2022/12/08 06:22:04;;;;;;;4.30;1.40;;;4.80;99.90;;;;;;5004606;28;38222;-78
2022/12/08 06:24:30;;;;;;;5.83;1.43;;;4.60;99.90;;;;;;5023162;28;38986;-78
2022/12/08 06:26:56;;;;;;;3.07;1.13;;;4.50;99.90;;;;;;5005139;28;38515;-78
2022/12/08 06:29:26;;;;;;;3.97;1.50;;;4.50;99.90;;;;;;5007711;28;37068;-78
2022/12/08 06:31:55;;;;;;;2.27;0.90;;;4.40;99.90;;;;;;4998476;28;39167;-78
2022/12/08 06:34:21;;;;;;;2.70;0.83;;;4.40;99.90;;;;;;5006264;28;37580;-79
2022/12/08 06:36:47;;;;;;;5.53;0.90;;;4.30;99.90;;;;;;5002398;28;38088;-78
2022/12/08 06:39:13;;;;;;;2.57;0.80;;;4.30;99.90;;;;;;5007310;28;37240;-78
2022/12/08 06:42:42;;;;;;;2.00;0.90;;;4.20;99.90;;;;;;5002976;28;37563;-78
2022/12/08 06:44:25;;;;;;;5.70;1.10;;;4.30;99.90;;;;;;5005733;28;39072;-78
2022/12/08 06:46:51;;;;;;;1.50;0.87;;;4.20;99.90;;;;;;5007239;28;37989;-78
2022/12/08 06:49:20;;;;;;;6.33;1.10;;;4.30;99.90;;;;;;5018160;28;36902;-78
2022/12/08 06:51:46;;;;;;;3.33;1.43;;;4.30;99.90;;;;;;5007465;28;38954;-79
2022/12/08 06:54:12;;;;;;;3.13;1.23;;;4.30;99.90;;;;;;5005921;28;37111;-79
2022/12/08 06:56:38;;;;;;;2.03;1.40;;;4.30;99.90;;;;;;5004858;28;37328;-79
2022/12/08 06:59:04;;;;;;;3.30;1.63;;;4.30;99.90;;;;;;5003988;28;36732;-79
2022/12/08 07:01:30;;;;;;;3.83;0.93;;;4.30;99.90;;;;;;5007701;28;39206;-79
2022/12/08 07:03:57;;;;;;;3.53;0.80;;;4.30;99.90;;;;;;5008617;28;37272;-81
2022/12/08 07:06:24;;;;;;;2.10;0.67;;;4.20;99.90;;;;;;5011894;28;38133;-81
2022/12/08 07:08:50;;;;;;;4.30;0.63;;;4.20;99.90;;;;;;5029731;28;36361;-79
2022/12/08 07:11:16;;;;;;;0.57;0.23;;;4.10;99.90;;;;;;5006721;28;39858;-81
2022/12/08 07:13:42;;;;;;;3.90;0.60;;;4.10;99.90;;;;;;5010403;28;38963;-79
2022/12/08 07:16:10;;;;;;;2.90;0.37;;;4.00;99.90;;;;;;5013120;28;37646;-79
2022/12/08 07:18:37;;;;;;;0.70;0.30;;;4.00;99.90;;;;;;5027056;28;37288;-79
2022/12/08 07:21:11;;;;;;;2.17;0.43;;;4.00;99.90;;;;;;5012005;28;37878;-79
2022/12/08 07:23:38;;;;;;;2.60;0.40;;;4.00;99.90;;;;;;5024801;28;47769;-78
2022/12/08 07:26:07;;;;;;;1.13;0.50;;;4.00;99.90;;;;;;5007065;28;37960;-80
2022/12/08 07:28:35;;;;;;;5.27;0.43;;;4.00;99.90;;;;;;5018815;28;47494;-78
2022/12/08 07:31:02;;;;;;;5.40;0.60;;;4.00;99.90;;;;;;5011185;28;39213;-77
2022/12/08 07:33:28;;;;;;;2.07;0.50;;;4.00;99.90;;;;;;5009621;28;37172;-78
2022/12/08 07:35:56;;;;;;;2.20;1.07;;;4.10;99.90;;;;;;5011073;28;39224;-77
2022/12/08 07:38:23;;;;;;;3.50;1.33;;;4.10;99.90;;;;;;5002634;28;36963;-77
2022/12/08 07:40:50;;;;;;;4.70;1.60;;;4.10;99.90;;;;;;5001502;28;37596;-77
2022/12/08 07:43:16;;;;;;;3.27;1.63;;;4.10;99.90;;;;;;5006535;28;38501;-77
2022/12/08 07:45:43;;;;;;;4.43;1.70;;;4.10;99.90;;;;;;5004503;28;37883;-77
2022/12/08 07:48:09;;;;;;;2.10;1.30;;;4.10;99.90;;;;;;5007252;28;37218;-78
2022/12/08 07:50:35;;;;;;;2.93;1.10;;;4.10;99.90;;;;;;5006480;28;38838;-78
2022/12/08 07:53:01;;;;;;;2.43;1.10;;;4.10;99.90;;;;;;5008195;28;39365;-78
2022/12/08 07:55:28;;;;;;;4.20;1.00;;;4.00;99.90;;;;;;5005378;28;37726;-77
2022/12/08 07:57:54;;;;;;;1.70;0.63;;;3.90;99.90;;;;;;5006184;28;35937;-77
2022/12/08 08:00:20;;;;;;;1.13;0.37;;;3.90;99.90;;;;;;5020447;28;38040;-77
2022/12/08 08:02:47;;;;;;;1.60;0.43;;;3.80;99.90;;;;;;5012079;28;38036;-77
2022/12/08 08:05:13;;;;;;;0.30;0.30;;;3.80;99.90;;;;;;5025191;28;36934;-77
2022/12/08 08:07:42;;;;;;;1.00;0.27;;;3.80;99.90;;;;;;5005282;28;36636;-77
2022/12/08 08:10:09;;;;;;;1.40;0.60;;;3.80;99.90;;;;;;5025298;28;37524;-77
2022/12/08 08:12:36;;;;;;;0.53;0.20;;;3.80;99.90;;;;;;5027607;28;37064;-77
2022/12/08 08:15:08;;;;;;;0.30;0.20;;;3.70;99.90;;;;;;5024396;28;36983;-77
2022/12/08 08:17:36;;;;;;;1.42;0.30;;;3.70;99.90;;;;;;5007216;28;49114;-77
2022/12/08 08:20:07;;;;;;;1.17;0.30;;;3.70;99.90;;;;;;5007050;28;37621;-77
2022/12/08 08:22:33;;;;;;;1.03;0.37;;;3.60;99.90;;;;;;5009537;28;47880;-77
2022/12/08 08:24:59;;;;;;;0.53;0.30;;;3.60;99.90;;;;;;5012780;28;38969;-77
2022/12/08 08:27:26;;;;;;;1.77;0.60;;;3.60;99.90;;;;;;5012485;28;20521;-77
2022/12/08 08:29:53;;;;;;;5.40;1.67;;;3.60;99.90;;;;;;4995967;28;38989;-77
2022/12/08 08:32:19;;;;;;;2.53;1.13;;;3.60;99.90;;;;;;5010779;28;38573;-77
2022/12/08 08:34:45;;;;;;;2.87;1.60;;;3.60;99.90;;;;;;5009600;28;37018;-78
2022/12/08 08:37:11;;;;;;;7.97;2.97;;;3.70;99.90;;;;;;5007290;28;35897;-77
2022/12/08 08:39:37;;;;;;;3.10;1.70;;;3.70;99.90;;;;;;5011268;28;38707;-77
2022/12/08 08:42:03;;;;;;;5.10;2.40;;;3.70;99.90;;;;;;5004404;28;38527;-77
2022/12/08 08:44:29;;;;;;;4.33;2.20;;;3.70;99.90;;;;;;5010337;28;38052;-76
2022/12/08 08:46:55;;;;;;;1.97;1.40;;;3.80;99.90;;;;;;5012202;28;37954;-77
2022/12/08 08:49:21;;;;;;;1.73;0.80;;;3.80;99.90;;;;;;5012551;28;38776;-77
2022/12/08 08:51:47;;;;;;;1.90;0.70;;;3.80;99.90;;;;;;5009711;28;38626;-77
2022/12/08 08:54:14;;;;;;;2.47;0.40;;;3.80;99.90;;;;;;5011119;28;38574;-77
2022/12/08 08:56:40;;;;;;;0.57;0.30;;;3.90;99.90;;;;;;5007324;28;37184;-77
2022/12/08 08:59:09;;;;;;;0.57;0.20;;;3.90;99.90;;;;;;5025576;28;39170;-77
2022/12/08 09:01:35;;;;;;;1.27;0.30;;;4.00;99.90;;;;;;5010105;28;38321;-77
2022/12/08 09:04:02;;;;;;;1.70;0.50;;;4.00;99.90;;;;;;5011100;28;37932;-77
2022/12/08 09:06:28;;;;;;;1.53;0.50;;;4.10;99.90;;;;;;5006868;28;47657;-77
2022/12/08 09:08:54;;;;;;;3.93;0.70;;;4.20;99.90;;;;;;5006150;28;39928;-77
2022/12/08 09:11:22;;;;;;;0.93;0.60;;;4.20;99.90;;;;;;5013454;28;38533;-77
2022/12/08 09:13:49;;;;;;;1.07;0.43;;;4.20;99.90;;;;;;5012447;28;36725;-77
2022/12/08 09:16:17;;;;;;;3.00;1.00;;;4.10;99.90;;;;;;5011018;28;36225;-77
2022/12/08 09:18:43;;;;;;;1.67;1.27;;;4.00;99.90;;;;;;5007050;28;38597;-77
2022/12/08 09:21:13;;;;;;;3.40;1.17;;;3.90;99.90;;;;;;5011354;28;37247;-77
2022/12/08 09:23:39;;;;;;;3.70;0.90;;;3.70;99.90;;;;;;5007540;28;38255;-77
2022/12/08 09:26:08;;;;;;;5.17;0.60;;;3.60;99.90;;;;;;5024157;28;35901;-77
2022/12/08 09:28:34;;;;;;;3.93;0.83;;;3.40;99.90;;;;;;5018713;28;38904;-77
2022/12/08 09:31:00;;;;;;;5.53;1.73;;;3.40;99.90;;;;;;5005902;28;37907;-77
2022/12/08 09:33:26;;;;;;;5.53;0.70;;;3.20;99.90;;;;;;5007858;28;38207;-77
2022/12/08 09:35:53;;;;;;;4.33;0.43;;;3.20;99.90;;;;;;5011860;28;37174;-78
2022/12/08 09:38:19;;;;;;;2.47;0.67;;;3.10;99.90;;;;;;5023469;28;38774;-78
2022/12/08 09:40:50;;;;;;;2.60;1.03;;;3.00;99.90;;;;;;5008321;28;38619;-77
2022/12/08 09:43:18;;;;;;;1.20;0.80;;;3.10;99.90;;;;;;5007063;28;37468;-77
2022/12/08 09:45:46;;;;;;;2.30;0.60;;;3.10;99.90;;;;;;5012286;28;36089;-77
2022/12/08 09:48:18;;;;;;;4.17;0.77;;;3.10;99.90;;;;;;5019388;28;37390;-77
2022/12/08 09:50:51;;;;;;;5.15;0.80;;;3.10;99.90;;;;;;5009640;28;37213;-78
2022/12/08 09:53:21;;;;;;;;;;;3.20;99.90;;;;;;5007174;28;38962;-78
2022/12/08 09:55:56;;;;;;;3.07;0.80;;;3.30;99.90;;;;;;5027073;28;37717;-80
2022/12/08 09:58:25;;;;;;;2.33;0.57;;;3.30;99.90;;;;;;5012990;28;37619;-79
2022/12/08 10:00:51;;;;;;;3.37;0.90;;;3.40;99.90;;;;;;5014491;28;38499;-79
2022/12/08 10:03:19;;;;;;;4.03;0.90;;;3.30;99.90;;;;;;5015037;28;38772;-79
2022/12/08 10:05:54;;;;;;;4.27;1.00;;;3.40;99.90;;;;;;5021627;28;36351;-78
2022/12/08 10:08:30;;;;;;;2.30;0.93;;;3.50;99.90;;;;;;5017010;28;38824;-79
2022/12/08 10:11:03;;;;;;;3.27;1.63;;;3.40;99.90;;;;;;5007958;28;37267;-78
2022/12/08 10:14:02;;;;;;;3.08;1.48;;;3.40;99.90;;;;;;5030760;28;38220;-79
2022/12/08 10:16:40;;;;;;;4.23;1.30;;;3.30;99.90;;;;;;5011055;28;48206;-80
2022/12/08 10:19:16;;;;;;;2.43;1.10;;;3.50;99.90;;;;;;5022501;28;39429;-78
2022/12/08 10:21:43;;;;;;;2.67;0.63;;;3.50;99.90;;;;;;5020214;28;38720;-79
2022/12/08 10:24:25;;;;;;;2.57;0.97;;;3.50;99.90;;;;;;5030987;28;37278;-78
2022/12/08 10:26:53;;;;;;;2.70;0.95;;;3.50;99.90;;;;;;5035369;28;35777;-79
2022/12/08 10:29:19;;;;;;;3.37;1.20;;;3.60;99.90;;;;;;5030703;28;37243;-78
2022/12/08 10:31:45;;;;;;;2.33;1.00;;;3.80;99.90;;;;;;5010020;28;38840;-79
2022/12/08 10:34:18;;;;;;;4.30;1.37;;;3.90;99.90;;;;;;5013216;28;36597;-79
2022/12/08 10:36:49;;;;;;;4.37;1.57;;;4.00;99.90;;;;;;5007056;28;38384;-79
2022/12/08 10:39:34;;;;;;;2.43;1.40;;;4.00;99.90;;;;;;5008224;28;39418;-78
2022/12/08 10:42:05;;;;;;;3.27;1.20;;;4.10;99.90;;;;;;5007303;28;40032;-79
2022/12/08 10:44:31;;;;;;;1.33;0.77;;;4.10;99.90;;;;;;5010780;28;48895;-79
2022/12/08 10:47:10;;;;;;;4.40;0.60;;;4.10;99.90;;;;;;5027488;28;35776;-80
2022/12/08 10:49:37;;;;;;;2.60;0.50;;;4.10;99.90;;;;;;5024307;28;46873;-80
2022/12/08 10:52:20;;;;;;;1.40;0.70;;;4.10;99.90;;;;;;5005634;28;39020;-79
2022/12/08 10:54:52;;;;;;;2.30;0.60;;;4.00;99.90;;;;;;5008775;28;38012;-78
2022/12/08 10:57:20;;;;;;;1.38;0.82;;;4.00;99.90;;;;;;5000319;28;35960;-78
2022/12/08 10:59:46;;;;;;;1.00;0.50;;;4.00;99.90;;;;;;5008419;28;37719;-78
2022/12/08 11:02:19;;;;;;;1.87;0.70;;;4.10;99.90;;;;;;5005486;28;38884;-78
2022/12/08 11:04:45;;;;;;;1.95;0.60;;;4.30;99.90;;;;;;5008008;28;38364;-78
2022/12/08 11:07:21;;;;;;;1.27;0.70;;;4.30;99.90;;;;;;5004194;28;35793;-78
2022/12/08 11:09:54;;;;;;;2.03;0.70;;;4.40;99.90;;;;;;5008465;28;38697;-78
2022/12/08 11:12:21;;;;;;;2.43;0.53;;;4.50;99.90;;;;;;5025288;28;38048;-79
2022/12/08 11:14:49;;;;;;;3.10;0.60;;;4.30;99.90;;;;;;5012483;28;37929;-80
2022/12/08 11:17:16;;;;;;;1.87;0.77;;;4.30;99.90;;;;;;5012694;28;35971;-79
2022/12/08 11:20:05;;;;;;;4.13;0.50;;;4.10;99.90;;;;;;5009747;28;38579;-79
2022/12/08 11:22:38;;;;;;;1.53;0.40;;;3.90;99.90;;;;;;5002257;28;47095;-80
2022/12/08 11:25:11;;;;;;;2.00;0.43;;;3.90;99.90;;;;;;5006654;28;38750;-79
2022/12/08 11:27:48;;;;;;;2.53;0.53;;;4.00;99.90;;;;;;5008546;28;47076;-80
2022/12/08 11:30:19;;;;;;;4.57;0.67;;;4.00;99.90;;;;;;5008658;28;37179;-79
2022/12/08 11:32:58;;;;;;;1.60;0.60;;;4.00;99.90;;;;;;5008893;28;39361;-79
2022/12/08 11:35:41;;;;;;;4.37;1.00;;;4.20;99.90;;;;;;5016610;28;37697;-78
2022/12/08 11:38:14;;;;;;;;;;;4.20;99.90;;;;;;5001436;28;37077;-79
2022/12/08 11:40:41;;;;;;;;;;;4.30;99.90;;;;;;5008127;28;37723;-79
2022/12/08 11:43:30;;;;;;;3.37;0.87;;;4.20;99.90;;;;;;5007974;28;38484;-79
2022/12/08 11:46:01;;;;;;;2.97;1.30;;;4.30;99.90;;;;;;5007162;28;38657;-79
2022/12/08 11:48:34;;;;;;;4.90;1.20;;;4.40;99.90;;;;;;5008541;28;37044;-79
2022/12/08 11:51:17;;;;;;;3.22;1.05;;;4.40;99.90;;;;;;5007298;28;37540;-79
2022/12/08 11:53:57;;;;;;;3.25;1.05;;;4.40;99.90;;;;;;5020127;28;47131;-79
2022/12/08 11:56:26;;;;;;;3.87;0.93;;;4.20;99.90;;;;;;5006549;28;36919;-79
2022/12/08 11:59:17;;;;;;;1.73;0.60;;;4.30;99.90;;;;;;5008681;28;37472;-79
2022/12/08 12:01:43;;;;;;;2.47;0.60;;;4.30;99.90;;;;;;5007314;28;49092;-79
2022/12/08 12:04:34;;;;;;;1.27;0.53;;;4.30;99.90;;;;;;4994870;28;37082;-79
2022/12/08 12:07:06;;;;;;;4.77;2.03;;;4.40;99.90;;;;;;5002041;28;36889;-79
2022/12/08 12:09:52;;;;;;;2.73;0.60;;;4.30;99.90;;;;;;5019874;28;49311;-79
2022/12/08 12:12:50;;;;;;;2.43;0.40;;;4.30;99.90;;;;;;4993310;28;38618;-79
2022/12/08 12:15:38;;;;;;;1.00;0.30;;;4.30;99.90;;;;;;5004370;28;38752;-79
2022/12/08 12:18:15;;;;;;;2.60;0.50;;;4.30;99.90;;;;;;5007116;28;38054;-78
2022/12/08 12:20:50;;;;;;;1.37;0.90;;;4.40;99.90;;;;;;5022857;28;37511;-79
2022/12/08 12:23:26;;;;;;;1.50;0.50;;;4.50;99.90;;;;;;5010008;28;38323;-79
2022/12/08 12:26:00;;;;;;;3.30;0.50;;;4.50;99.90;;;;;;5009043;28;39656;-79
2022/12/08 12:28:35;;;;;;;2.87;0.77;;;4.40;99.90;;;;;;5010038;28;37085;-79
2022/12/08 12:31:04;;;;;;;2.60;0.73;;;4.30;99.90;;;;;;5003968;28;37218;-79
2022/12/08 12:33:31;;;;;;;2.33;0.60;;;4.30;99.90;;;;;;5011029;28;47489;-80
2022/12/08 12:36:02;;;;;;;2.47;0.67;;;4.40;99.90;;;;;;5024210;28;37848;-79
2022/12/08 12:39:00;;;;;;;1.63;0.53;;;4.50;99.90;;;;;;5010836;28;37048;-79
2022/12/08 12:41:48;;;;;;;0.57;0.33;;;4.50;99.90;;;;;;5006712;28;37469;-79
2022/12/08 12:44:14;;;;;;;1.73;0.50;;;4.60;99.90;;;;;;5006455;28;42119;-79
2022/12/08 12:46:49;;;;;;;4.33;0.80;;;4.60;99.90;;;;;;5004548;28;37878;-79
2022/12/08 12:49:37;;;;;;;1.47;0.60;;;4.50;99.90;;;;;;4998434;28;38263;-79
2022/12/08 12:52:15;;;;;;;1.23;0.60;;;4.50;99.90;;;;;;5022342;28;38962;-79
2022/12/08 12:55:01;;;;;;;4.97;1.83;;;4.30;99.90;;;;;;5005001;28;37804;-80
2022/12/08 12:57:48;;;;;;;3.03;0.83;;;4.20;99.90;;;;;;4999639;28;38007;-79
2022/12/08 13:00:22;;;;;;;1.43;0.70;;;4.10;99.90;;;;;;5015097;28;36814;-78
2022/12/08 13:02:54;;;;;;;1.97;0.90;;;4.10;99.90;;;;;;5009813;28;35756;-79
2022/12/08 13:05:29;;;;;;;2.53;1.23;;;4.10;99.90;;;;;;5008063;28;38163;-80
2022/12/08 13:08:06;;;;;;;1.67;1.10;;;4.00;99.90;;;;;;5007549;28;37532;-79
2022/12/08 13:10:38;;;;;;;2.93;0.80;;;4.00;99.90;;;;;;5003567;28;47416;-80
2022/12/08 13:13:11;;;;;;;0.87;0.80;;;4.00;99.90;;;;;;5002669;28;35836;-79
2022/12/08 13:15:51;;;;;;;3.97;0.90;;;4.00;99.90;;;;;;5004323;28;39896;-81